Airfield :
LOGIN :

Register | Disclaimer

   EN    FR    IT 

 










Legend :    VFR   Marginal VFR   IFR   Intensive IFR   Very Intensive IFR
Visi :
Ceiling :
>= 8 km
>= 3000ft
5 to 8 km
1000 to 3000 ft
1500m to 5 km
500 to 1000 ft
800 to 1500m
200 to 500 ft
< 800m
< 200 ft
Symbols :   Thunderstorms  Fog  Heavy snow  Heavy precipitations  Wind > 20 kt
SIGMETs :     Misc.  Thunderstorms  Icing  Turbulence  Mountain Waves  Volcanic Ashes






- Airport Elevation : 12 ft
- IATA code : NCE


LFMN - Nice

CURRENT METAR :
  • 211100Z 11014KT 9999 SCT014 SCT130 27/23 Q1009 NOSIG

EXPIRED METARs :
  • 211030Z 09013KT 9999 FEW017 SCT160 27/23 Q1008 NOSIG
  • 211000Z 07012KT 9999 FEW017 SCT160 28/24 Q1009 NOSIG
  • 210930Z 09010KT 9999 FEW017 SCT160 28/23 Q1009 NOSIG
  • 210900Z 09011KT 9999 FEW013 SCT160 28/22 Q1009 NOSIG
  • 210830Z 10011KT 9999 FEW013 SCT017 FEW100CB 27/22 Q1009 NOSIG
  • 210800Z 08006KT 9999 FEW013 SCT017 27/22 Q1009 NOSIG
  • 210730Z 09006KT 9999 FEW013 27/22 Q1009 NOSIG
  • 210700Z 06004KT 020V110 9999 FEW013 27/21 Q1008 NOSIG
  • 210630Z 05005KT 030V090 9999 FEW013 27/21 Q1008 NOSIG

TAF TAF LFMN
Valid from the 21 at 09:00 until the 22 at 15:00 UTC


210800Z 2109/2215 09010KT CAVOK
PROB40
TEMPO 2113/2116 18010KT -TSRA SCT020 BKN100CB
BECMG 2119/2121 34010KT
BECMG 2208/2210 17010KT
ATIS : +33 4 93 17 21 16



MET'MAP, your aeronautical weather chart ! - Copyright ORBIFLY December 2007 - Disclaimer

ORBIFLY MET'MAP TEAM :

Programming & Development : Alexandra Zaïnal
Original concept : Baudouin d'Aumeries
Technical & hardware support : Manuel Goepfert
Assistance : Marc-Olivier Méhu




SOURCES & CREDITS :

   NOAA